메인 페이지
METAR-TAF:

METAR-TAF

공항 :

LaGrange-Callaway Airport

LaGrange, 조지아, 미국

위도: 33-00-32N, 경도: 085-04-21W, 고도: 211m

현재 날씨관측

예보는 21분 전, 00:55시(UTC)에 발표되었습니다.
12kt, 순간 최대 풍속 17kt
온도 23°C
습도 100%
기압 1011 hPa
시정: 16.1km
고도 5000ft 상공 구름 많음
고도 7000ft 상공 구름 많음

METAR: KLGC 220055Z AUTO 26012G17KT 10SM BKN050 BKN070 23/23 A2986 RMK AO2 LTG DSNT SW T02310227

시각: 21:16 (01:16 UTC)


TAF: 누락

4,000개 이상의 공항 관측 자료 및 예보 (METAR 및 TAF 보고).

지도상에서 검색 가능한 기상관측소가 노란 점과 빨간 점으로 표시되어 있습니다.

기상관측소 명을 보려면 표시 위로 마우스를 이동하세요.

날씨 관측과 예보를 보려면 클릭하세요.

지도 변경 : 확대하려면 엑스 표시가 있는 녹색 버튼, 축소하려면 빼기 표시가 있는 녹색 버튼, 다음 페이지의 지도를 보려면 녹색 화살표를 클릭하세요.


METAR-TAF: